Lily Dale, NY (14752)

6:39 AM EST on January 30, 2015 (GMT -0500)
Town of Pomfret | Change Station
CLOSE
Current Station
Personal Weather Station
Location: Fredonia, NY
Elevation: 846 ft
Nearby Weather Stations

Elev 846 ft 42.42 °N, 79.35 °W | Updated 2 minutes ago

Snow
Snow
25.0 °F
Feels Like 18 °F
N
6.3
Wind Variable Wind from SW

Today
High -- | Low -- °F
--% Chance of Precip.
Yesterday
High -- | Low -- °F
Precip. -- in
7:33 AM 5:28 PM
Waxing Gibbous, 82% visible
Pressure 30.02 in
Visibility 9.0 miles
Clouds Mostly Cloudy 1400 ft
Overcast 2700 ft
Windchill 18 °F
Dew Point 24 °F
Humidity 98%
Rainfall 0.00 in
Snow Depth Not available.
UV 0 out of 12
Pollen .10 out of 12
Air Quality Not available.
Flu Activity Not available.
SPECI KDKK 301129Z AUTO 29010G18KT 9SM BKN014 OVC027 M03/M06 A3002 RMK AO2 SNB05E27 P0000 T10331056

More Conditions Fewer Conditions

Pressure 30.02 in
Visibility 9.0 miles
Clouds Mostly Cloudy 1400 ft
Overcast 2700 ft
Windchill 18 °F
Dew Point 24 °F
Humidity 98%
Rainfall 0.00 in
Snow Depth Not available.
UV 0 out of 12
Pollen .10 out of 12
Air Quality Not available.
Flu Activity Not available.
SPECI KDKK 301129Z AUTO 29010G18KT 9SM BKN014 OVC027 M03/M06 A3002 RMK AO2 SNB05E27 P0000 T10331056

More Conditions Fewer Conditions

10-Day Weather Forecast

Almanac

Astronomy

Jan. 30, 2015 Rise Set
Actual Time
Civil Twilight
Nautical Twilight
Astronomical Twilight
Moon
Length of Visible Light
Length of Day
Tomorrow will be .
, % of the Moon is Illuminated

Today's Extremes

State Highs State Lows

Community

WunderPhotos

Upload Photos

1,791,737 photos uploaded!

WunderBlogs® & News

Nearby

Air Quality

  Air Quality AQ Index Pollutant
Not available.

Snow Depth

Station Depth Elevation

Earthquake Activity

City Distance Mag. Time & Date
Minimum magnitude displayed is 2.5.

Coastal Water Temperatures

Place Temperature

Nearby Weather Stations